createdAt,value
2024-02-16T00:01:31.514Z,1.40
2024-02-16T00:04:10.268Z,1.30
2024-02-16T00:06:42.774Z,1.60
2024-02-16T00:09:21.421Z,1.30
2024-02-16T00:11:53.790Z,1.20
2024-02-16T00:14:33.473Z,1.10
2024-02-16T00:17:06.122Z,1.10
2024-02-16T00:19:45.370Z,1.60
2024-02-16T00:22:17.771Z,1.40
2024-02-16T00:24:56.266Z,1.60
2024-02-16T00:27:28.543Z,1.40
2024-02-16T00:30:07.494Z,1.40
2024-02-16T00:32:40.031Z,1.30
2024-02-16T00:35:23.329Z,1.40
2024-02-16T00:37:55.686Z,1.40
2024-02-16T00:40:37.187Z,1.30
2024-02-16T00:43:09.674Z,1.50
2024-02-16T00:45:48.288Z,1.40
2024-02-16T00:48:20.499Z,1.50
2024-02-16T00:50:59.611Z,1.40
2024-02-16T00:53:31.951Z,1.40
2024-02-16T00:56:11.322Z,1.30
2024-02-16T00:58:43.479Z,1.40
2024-02-16T01:01:22.552Z,1.30
2024-02-16T01:03:54.899Z,1.40
2024-02-16T01:06:33.346Z,1.40
2024-02-16T01:09:05.934Z,1.30
2024-02-16T01:11:44.301Z,1.30
2024-02-16T01:14:16.619Z,1.60
2024-02-16T01:16:55.343Z,1.30
2024-02-16T01:19:27.603Z,1.60
2024-02-16T01:22:06.355Z,1.30
2024-02-16T01:24:38.695Z,1.20
2024-02-16T01:27:17.417Z,1.30
2024-02-16T01:29:49.621Z,1.40
2024-02-16T01:32:28.591Z,1.40
2024-02-16T01:35:00.928Z,1.30
2024-02-16T01:37:40.259Z,1.30
2024-02-16T01:40:12.868Z,1.20
2024-02-16T01:42:52.386Z,1.30
2024-02-16T01:45:24.917Z,1.30
2024-02-16T01:48:04.664Z,1.20
2024-02-16T01:50:38.362Z,1.50
2024-02-16T01:53:19.349Z,1.20
2024-02-16T01:55:52.079Z,1.50
2024-02-16T01:58:31.391Z,1.50
2024-02-16T02:01:03.771Z,1.30
2024-02-16T02:03:42.617Z,1.30
2024-02-16T02:06:14.942Z,1.30
2024-02-16T02:08:53.306Z,1.30
2024-02-16T02:11:26.130Z,1.30
2024-02-16T02:14:05.238Z,1.40
2024-02-16T02:16:44.779Z,1.30
2024-02-16T02:19:30.425Z,1.50
2024-02-16T02:22:02.714Z,1.30
2024-02-16T02:24:41.397Z,1.30
2024-02-16T02:27:14.501Z,1.50
2024-02-16T02:29:53.421Z,1.40
2024-02-16T02:32:25.935Z,1.20
2024-02-16T02:35:04.583Z,1.40
2024-02-16T02:37:36.935Z,1.40
2024-02-16T02:40:16.337Z,1.50
2024-02-16T02:42:48.518Z,1.50
2024-02-16T02:45:27.361Z,1.60
2024-02-16T02:47:59.545Z,1.30
2024-02-16T02:50:38.410Z,1.20
2024-02-16T02:53:10.664Z,1.50
2024-02-16T02:55:49.393Z,1.40
2024-02-16T02:58:21.697Z,1.50
2024-02-16T03:01:00.318Z,1.60
2024-02-16T03:03:32.565Z,1.50
2024-02-16T03:06:11.559Z,1.50
2024-02-16T03:08:43.959Z,1.40
2024-02-16T03:11:22.522Z,1.40
2024-02-16T03:13:54.803Z,1.40
2024-02-16T03:16:33.563Z,1.70
2024-02-16T03:19:08.155Z,1.60
2024-02-16T03:21:47.334Z,1.50
2024-02-16T03:24:19.703Z,1.40
2024-02-16T03:26:58.313Z,1.60
2024-02-16T03:29:30.768Z,1.40
2024-02-16T03:32:10.505Z,1.60
2024-02-16T03:34:42.788Z,1.60
2024-02-16T03:37:21.326Z,1.50
2024-02-16T03:39:53.533Z,1.30
2024-02-16T03:42:32.375Z,1.60
2024-02-16T03:45:05.229Z,1.40
2024-02-16T03:47:44.392Z,1.60
2024-02-16T03:50:16.983Z,1.50
2024-02-16T03:52:56.519Z,1.40
2024-02-16T03:55:28.695Z,1.70
2024-02-16T03:58:07.359Z,1.50
2024-02-16T04:00:39.640Z,1.50
2024-02-16T04:03:18.583Z,1.50
2024-02-16T04:05:51.089Z,1.60
2024-02-16T04:08:29.443Z,1.70
2024-02-16T04:11:01.668Z,1.30
2024-02-16T04:13:40.357Z,1.50
2024-02-16T04:16:12.570Z,1.60
2024-02-16T04:18:51.472Z,1.60
2024-02-16T04:21:23.868Z,1.40
2024-02-16T04:24:02.385Z,1.50
2024-02-16T04:26:34.708Z,1.50
2024-02-16T04:29:13.674Z,1.50
2024-02-16T04:31:46.105Z,1.70
2024-02-16T04:34:24.444Z,1.70
2024-02-16T04:36:56.655Z,1.60
2024-02-16T04:39:35.546Z,1.70
2024-02-16T04:42:07.893Z,1.70
2024-02-16T04:44:47.453Z,1.50
2024-02-16T04:47:19.782Z,1.60
2024-02-16T04:49:58.372Z,1.70
2024-02-16T04:52:31.208Z,1.80
2024-02-16T04:55:10.483Z,1.70
2024-02-16T04:57:42.727Z,1.70
2024-02-16T05:00:22.618Z,1.90
2024-02-16T05:02:55.198Z,1.80
2024-02-16T05:05:34.433Z,1.60
2024-02-16T05:08:07.228Z,1.60
2024-02-16T05:10:46.457Z,1.70
2024-02-16T05:13:18.838Z,1.80
2024-02-16T05:15:57.369Z,1.80
2024-02-16T05:18:29.677Z,1.80
2024-02-16T05:21:08.370Z,1.70
2024-02-16T05:23:40.594Z,1.70
2024-02-16T05:26:19.418Z,1.80
2024-02-16T05:28:51.707Z,1.70
2024-02-16T05:31:30.583Z,1.70
2024-02-16T05:34:03.102Z,1.90
2024-02-16T05:36:41.400Z,1.90
2024-02-16T05:39:13.567Z,1.70
2024-02-16T05:41:52.594Z,1.80
2024-02-16T05:44:24.835Z,1.90
2024-02-16T05:47:03.424Z,1.80
2024-02-16T05:49:35.695Z,1.80
2024-02-16T05:52:14.658Z,1.90
2024-02-16T05:54:50.472Z,2.00
2024-02-16T05:57:29.521Z,2.00
2024-02-16T06:00:02.347Z,2.00
2024-02-16T06:02:41.492Z,1.90
2024-02-16T06:05:13.906Z,2.20
2024-02-16T06:07:52.455Z,1.90
2024-02-16T06:10:24.899Z,2.10
2024-02-16T06:13:03.613Z,2.20
2024-02-16T06:15:35.834Z,2.00
2024-02-16T06:18:14.541Z,2.00
2024-02-16T06:20:46.973Z,2.10
2024-02-16T06:23:25.462Z,2.20
2024-02-16T06:25:57.669Z,2.00
2024-02-16T06:28:36.468Z,2.20
2024-02-16T06:31:08.696Z,2.10
2024-02-16T06:33:48.030Z,2.00
2024-02-16T06:36:20.304Z,2.10
2024-02-16T06:38:59.701Z,2.10
2024-02-16T06:41:32.139Z,2.00
2024-02-16T06:44:12.493Z,2.00
2024-02-16T06:46:44.935Z,2.20
2024-02-16T06:49:23.464Z,2.00
2024-02-16T06:51:55.879Z,2.20
2024-02-16T06:54:34.563Z,2.40
2024-02-16T06:57:08.289Z,2.30
2024-02-16T06:59:48.531Z,2.40
2024-02-16T07:02:21.042Z,2.30
2024-02-16T07:04:59.508Z,2.30
2024-02-16T07:07:31.827Z,2.30
2024-02-16T07:10:10.451Z,2.20
2024-02-16T07:12:42.958Z,2.10
2024-02-16T07:15:21.547Z,2.30
2024-02-16T07:17:54.642Z,2.40
2024-02-16T07:20:33.493Z,2.40
2024-02-16T07:23:05.710Z,2.30
2024-02-16T07:25:44.456Z,2.20
2024-02-16T07:28:16.833Z,2.20
2024-02-16T07:30:55.635Z,2.40
2024-02-16T07:33:28.221Z,2.30
2024-02-16T07:36:07.432Z,2.40
2024-02-16T07:38:39.738Z,2.40
2024-02-16T07:41:18.573Z,2.50
2024-02-16T07:43:50.861Z,2.40
2024-02-16T07:46:31.277Z,2.30
2024-02-16T07:49:04.871Z,2.40
2024-02-16T07:51:43.675Z,2.30
2024-02-16T07:54:15.998Z,2.30
2024-02-16T07:56:54.589Z,2.30
2024-02-16T07:59:27.183Z,2.50
2024-02-16T08:02:05.498Z,2.50
2024-02-16T08:04:38.321Z,2.50
2024-02-16T08:07:17.783Z,2.50
2024-02-16T08:09:50.320Z,2.40
2024-02-16T08:12:29.530Z,2.60
2024-02-16T08:15:01.835Z,2.50
2024-02-16T08:17:44.504Z,2.50
2024-02-16T08:20:16.865Z,2.70
2024-02-16T08:22:55.481Z,2.50
2024-02-16T08:25:27.605Z,2.70
2024-02-16T08:28:06.581Z,2.80
2024-02-16T08:30:39.255Z,2.80
2024-02-16T08:33:21.716Z,2.80
2024-02-16T08:35:54.153Z,2.70
2024-02-16T08:38:32.588Z,2.70
2024-02-16T08:41:04.852Z,2.80
2024-02-16T08:43:43.576Z,2.80
2024-02-16T08:46:15.700Z,3.00
2024-02-16T08:48:55.820Z,2.90
2024-02-16T08:51:28.100Z,2.90
2024-02-16T08:54:10.957Z,2.90
2024-02-16T08:56:43.314Z,3.10
2024-02-16T08:59:22.553Z,3.10
2024-02-16T09:01:54.721Z,3.30
2024-02-16T09:04:33.711Z,3.10
2024-02-16T09:07:06.148Z,3.20
2024-02-16T09:09:44.790Z,3.10
2024-02-16T09:12:17.197Z,3.20
2024-02-16T09:14:55.652Z,3.30
2024-02-16T09:17:28.170Z,3.30
2024-02-16T09:20:06.586Z,3.20
2024-02-16T09:22:46.775Z,3.30
2024-02-16T09:25:26.488Z,3.10
2024-02-16T09:27:58.609Z,3.20
2024-02-16T09:30:37.540Z,3.10
2024-02-16T09:33:10.051Z,3.20
2024-02-16T09:35:48.708Z,3.20
2024-02-16T09:38:21.112Z,3.50
2024-02-16T09:41:00.641Z,3.10
2024-02-16T09:43:32.760Z,3.10
2024-02-16T09:46:11.567Z,3.30
2024-02-16T09:48:47.532Z,3.50
2024-02-16T09:51:26.772Z,3.40
2024-02-16T09:54:00.005Z,3.40
2024-02-16T09:56:47.549Z,3.60
2024-02-16T09:59:19.700Z,3.40
2024-02-16T10:02:10.693Z,3.50
2024-02-16T10:04:42.986Z,3.60
2024-02-16T10:07:21.592Z,3.60
2024-02-16T10:09:53.697Z,3.60
2024-02-16T10:12:32.615Z,3.70
2024-02-16T10:15:05.319Z,3.60
2024-02-16T10:17:44.762Z,3.60
2024-02-16T10:20:20.137Z,3.70
2024-02-16T10:23:16.535Z,3.40
2024-02-16T10:25:48.630Z,3.60
2024-02-16T10:28:28.644Z,3.60
2024-02-16T10:31:01.783Z,3.50
2024-02-16T10:33:40.708Z,3.50
2024-02-16T10:36:13.806Z,3.60
2024-02-16T10:38:53.878Z,3.50
2024-02-16T10:41:29.120Z,3.60
2024-02-16T10:44:08.674Z,3.60
2024-02-16T10:46:41.933Z,3.60
2024-02-16T10:49:20.954Z,3.50
2024-02-16T10:51:56.870Z,3.40
2024-02-16T10:54:39.871Z,3.50
2024-02-16T10:57:12.176Z,3.60
2024-02-16T10:59:54.696Z,3.60
2024-02-16T11:02:27.300Z,3.50
2024-02-16T11:05:05.629Z,3.70
2024-02-16T11:07:38.253Z,3.60
2024-02-16T11:10:20.663Z,3.70
2024-02-16T11:12:55.765Z,3.50
2024-02-16T11:15:40.785Z,3.80
2024-02-16T11:18:13.126Z,3.80
2024-02-16T11:20:52.342Z,3.70
2024-02-16T11:23:31.911Z,3.60
2024-02-16T11:26:16.751Z,3.80
2024-02-16T11:28:49.131Z,3.70
2024-02-16T11:31:28.891Z,4.00
2024-02-16T11:34:01.242Z,3.90
2024-02-16T11:36:40.842Z,3.90
2024-02-16T11:39:16.226Z,3.90
2024-02-16T11:41:54.827Z,3.90
2024-02-16T11:44:27.666Z,3.90
2024-02-16T11:47:07.541Z,3.90
2024-02-16T11:49:40.066Z,4.00
2024-02-16T11:52:18.672Z,4.10
2024-02-16T11:54:50.860Z,3.90
2024-02-16T11:57:30.830Z,4.10
2024-02-16T12:00:05.052Z,4.00
2024-02-16T12:02:43.659Z,4.10
2024-02-16T12:05:16.465Z,4.10
2024-02-16T12:07:55.746Z,4.10
2024-02-16T12:10:30.340Z,4.30
2024-02-16T12:13:09.790Z,4.30
2024-02-16T12:15:41.984Z,4.30
2024-02-16T12:18:33.805Z,4.30
2024-02-16T12:21:09.237Z,4.20
2024-02-16T12:23:56.916Z,4.40
2024-02-16T12:26:28.991Z,4.40
2024-02-16T12:29:07.605Z,4.50
2024-02-16T12:31:43.800Z,4.50
2024-02-16T12:34:22.977Z,4.40
2024-02-16T12:36:55.314Z,4.50
2024-02-16T12:39:33.739Z,4.40
2024-02-16T12:42:06.005Z,4.30
2024-02-16T12:44:44.618Z,4.50
2024-02-16T12:47:16.816Z,4.60
2024-02-16T12:49:55.869Z,4.40
2024-02-16T12:52:35.873Z,4.70
2024-02-16T12:55:15.908Z,4.60
2024-02-16T12:57:48.428Z,4.60
2024-02-16T13:00:28.055Z,4.70
2024-02-16T13:03:00.225Z,4.60
2024-02-16T13:05:38.762Z,4.60
2024-02-16T13:08:11.192Z,4.70
2024-02-16T13:10:49.815Z,4.70
2024-02-16T13:13:21.964Z,4.70
2024-02-16T13:16:00.885Z,4.70
2024-02-16T13:18:33.529Z,4.70
2024-02-16T13:21:12.750Z,4.70
2024-02-16T13:23:45.147Z,4.70
2024-02-16T13:26:23.695Z,4.80
2024-02-16T13:28:56.965Z,4.80
2024-02-16T13:31:35.782Z,4.90
2024-02-16T13:34:07.976Z,4.80
2024-02-16T13:36:46.875Z,4.90
2024-02-16T13:39:19.217Z,4.90
2024-02-16T13:42:00.367Z,5.00
2024-02-16T13:44:32.845Z,5.00
2024-02-16T13:47:11.676Z,4.90
2024-02-16T13:49:43.981Z,5.00
2024-02-16T13:52:22.686Z,5.10
2024-02-16T13:54:54.881Z,5.20
2024-02-16T13:57:33.721Z,5.20
2024-02-16T14:00:07.689Z,5.10
2024-02-16T14:02:47.102Z,5.10
2024-02-16T14:05:19.550Z,5.30
2024-02-16T14:08:00.996Z,5.20
2024-02-16T14:10:34.433Z,5.30
2024-02-16T14:13:12.670Z,5.30
2024-02-16T14:15:44.814Z,5.30
2024-02-16T14:18:30.351Z,5.30
2024-02-16T14:21:07.301Z,5.50
2024-02-16T14:23:46.819Z,5.50
2024-02-16T14:26:19.002Z,5.40
2024-02-16T14:28:57.726Z,5.50
2024-02-16T14:31:30.069Z,5.70
2024-02-16T14:34:08.933Z,5.40
2024-02-16T14:36:41.653Z,5.60
2024-02-16T14:39:20.717Z,5.60
2024-02-16T14:41:52.873Z,5.40
2024-02-16T14:44:31.983Z,5.70
2024-02-16T14:47:04.459Z,5.40
2024-02-16T14:49:42.869Z,5.50
2024-02-16T14:52:16.463Z,5.40
2024-02-16T14:54:55.725Z,5.40
2024-02-16T14:57:28.142Z,5.50
2024-02-16T15:00:07.041Z,5.60
2024-02-16T15:02:40.123Z,5.60
2024-02-16T15:05:18.747Z,5.60
2024-02-16T15:07:50.874Z,5.70
2024-02-16T15:10:29.684Z,5.80
2024-02-16T15:13:01.940Z,5.90
2024-02-16T15:15:40.820Z,5.90
2024-02-16T15:18:13.183Z,5.90
2024-02-16T15:20:55.294Z,5.80
2024-02-16T15:23:28.133Z,5.80
2024-02-16T15:26:06.764Z,5.90
2024-02-16T15:28:39.136Z,5.80
2024-02-16T15:31:18.805Z,5.70
2024-02-16T15:33:51.269Z,5.70
2024-02-16T15:36:30.885Z,5.70
2024-02-16T15:39:03.129Z,5.80
2024-02-16T15:41:41.689Z,5.90
2024-02-16T15:44:14.043Z,5.80
2024-02-16T15:46:52.761Z,5.80
2024-02-16T15:49:25.292Z,5.80
2024-02-16T15:52:03.683Z,6.00
2024-02-16T15:54:36.046Z,6.00
2024-02-16T15:57:14.873Z,6.10
2024-02-16T15:59:47.646Z,5.80
2024-02-16T16:02:26.865Z,6.00
2024-02-16T16:05:02.279Z,6.10
2024-02-16T16:07:41.499Z,6.00
2024-02-16T16:10:16.134Z,6.00
2024-02-16T16:12:54.797Z,5.90
2024-02-16T16:15:27.217Z,5.90
2024-02-16T16:18:05.827Z,6.10
2024-02-16T16:20:38.255Z,6.10
2024-02-16T16:23:16.814Z,6.10
2024-02-16T16:25:56.944Z,6.10
2024-02-16T16:28:36.904Z,6.00
2024-02-16T16:31:09.523Z,6.10
2024-02-16T16:33:47.978Z,6.00
2024-02-16T16:36:20.657Z,6.00
2024-02-16T16:39:00.123Z,5.90
2024-02-16T16:41:32.587Z,5.90
2024-02-16T16:44:11.786Z,5.90
2024-02-16T16:46:44.156Z,6.10
2024-02-16T16:49:22.948Z,6.10
2024-02-16T16:51:55.366Z,6.00
2024-02-16T16:54:33.872Z,5.90
2024-02-16T16:57:09.232Z,6.10
2024-02-16T16:59:47.915Z,6.00
2024-02-16T17:02:20.005Z,6.00
2024-02-16T17:04:58.991Z,5.90
2024-02-16T17:07:31.518Z,5.90
2024-02-16T17:10:10.772Z,6.10
2024-02-16T17:12:49.440Z,5.80
2024-02-16T17:15:28.856Z,6.10
2024-02-16T17:18:03.552Z,5.90
2024-02-16T17:20:45.941Z,6.10
2024-02-16T17:23:18.600Z,6.00
2024-02-16T17:25:57.765Z,5.70
2024-02-16T17:31:17.750Z,6.10
2024-02-16T17:33:50.659Z,6.00
2024-02-16T17:36:29.960Z,5.90
2024-02-16T17:39:02.921Z,6.10
2024-02-16T17:41:42.609Z,6.10
2024-02-16T17:44:15.056Z,6.00
2024-02-16T17:46:58.384Z,6.10
2024-02-16T17:49:30.947Z,6.00
2024-02-16T17:52:09.859Z,6.10
2024-02-16T17:54:42.203Z,6.30
2024-02-16T17:57:20.875Z,6.00
2024-02-16T17:59:53.271Z,6.20
2024-02-16T18:02:39.889Z,6.20
2024-02-16T18:05:14.547Z,6.20
2024-02-16T18:07:53.927Z,6.10
2024-02-16T18:10:26.238Z,6.10
2024-02-16T18:13:04.893Z,6.20
2024-02-16T18:15:37.297Z,6.00
2024-02-16T18:18:15.960Z,6.10
2024-02-16T18:20:48.577Z,6.20
2024-02-16T18:23:26.781Z,6.10
2024-02-16T18:25:58.993Z,6.10
2024-02-16T18:28:45.357Z,6.20
2024-02-16T18:31:18.531Z,6.00
2024-02-16T18:34:05.056Z,6.00
2024-02-16T18:36:37.604Z,6.00
2024-02-16T18:39:16.842Z,6.10
2024-02-16T18:41:49.209Z,5.90
2024-02-16T18:44:27.896Z,5.90
2024-02-16T18:47:00.762Z,5.90
2024-02-16T18:49:40.053Z,5.90
2024-02-16T18:52:12.292Z,5.80
2024-02-16T18:54:53.082Z,5.90
2024-02-16T18:57:25.537Z,5.80
2024-02-16T19:00:05.070Z,5.80
2024-02-16T19:02:37.359Z,5.90
2024-02-16T19:05:16.822Z,5.80
2024-02-16T19:07:49.165Z,5.90
2024-02-16T19:10:30.809Z,5.80
2024-02-16T19:13:03.091Z,5.90
2024-02-16T19:15:42.142Z,6.00
2024-02-16T19:18:14.406Z,5.90
2024-02-16T19:20:52.817Z,5.90
2024-02-16T19:23:25.381Z,5.70
2024-02-16T19:26:05.005Z,5.80
2024-02-16T19:28:37.504Z,5.80
2024-02-16T19:31:16.135Z,5.70
2024-02-16T19:33:48.775Z,5.90
2024-02-16T19:36:27.882Z,5.90
2024-02-16T19:39:00.202Z,5.80
2024-02-16T19:41:39.205Z,5.80
2024-02-16T19:44:11.495Z,5.70
2024-02-16T19:46:51.015Z,5.80
2024-02-16T19:49:23.293Z,5.70
2024-02-16T19:52:02.941Z,5.80
2024-02-16T19:54:43.311Z,5.70
2024-02-16T19:57:22.069Z,5.80
2024-02-16T19:59:54.218Z,5.60
2024-02-16T20:02:33.854Z,5.90
2024-02-16T20:05:12.326Z,5.80
2024-02-16T20:07:51.074Z,5.90
2024-02-16T20:10:23.451Z,5.80
2024-02-16T20:13:01.840Z,5.90
2024-02-16T20:15:34.212Z,5.80
2024-02-16T20:18:13.677Z,5.90
2024-02-16T20:20:46.572Z,5.80
2024-02-16T20:23:25.091Z,5.90
2024-02-16T20:25:57.552Z,5.90
2024-02-16T20:28:37.204Z,6.00
2024-02-16T20:31:09.666Z,5.70
2024-02-16T20:33:48.361Z,5.90
2024-02-16T20:36:20.845Z,5.90
2024-02-16T20:38:59.975Z,5.90
2024-02-16T20:41:32.348Z,6.00
2024-02-16T20:44:10.945Z,5.80
2024-02-16T20:46:43.234Z,6.00
2024-02-16T20:49:22.154Z,5.80
2024-02-16T20:51:54.438Z,5.70
2024-02-16T20:54:32.989Z,5.70
2024-02-16T20:57:05.986Z,5.60
2024-02-16T20:59:46.705Z,5.60
2024-02-16T21:02:20.563Z,5.70
2024-02-16T21:05:00.002Z,5.50
2024-02-16T21:07:32.272Z,5.50
2024-02-16T21:10:11.052Z,5.60
2024-02-16T21:12:43.694Z,5.60
2024-02-16T21:15:23.179Z,5.60
2024-02-16T21:17:55.716Z,5.80
2024-02-16T21:20:35.085Z,5.70
2024-02-16T21:23:07.354Z,6.00
2024-02-16T21:25:45.881Z,5.80
2024-02-16T21:28:18.062Z,5.80
2024-02-16T21:30:57.050Z,5.70
2024-02-16T21:33:29.382Z,5.90
2024-02-16T21:36:07.971Z,5.60
2024-02-16T21:38:40.256Z,6.00
2024-02-16T21:41:19.117Z,5.80
2024-02-16T21:43:51.508Z,5.90
2024-02-16T21:46:41.073Z,5.90
2024-02-16T21:49:13.454Z,5.80
2024-02-16T21:51:51.973Z,5.80
2024-02-16T21:54:24.225Z,6.00
2024-02-16T21:57:03.021Z,5.70
2024-02-16T21:59:35.254Z,5.80
2024-02-16T22:02:15.145Z,5.90
2024-02-16T22:04:48.915Z,5.80
2024-02-16T22:07:28.181Z,5.80
2024-02-16T22:10:00.758Z,5.70
2024-02-16T22:12:40.171Z,5.80
2024-02-16T22:15:12.414Z,5.70
2024-02-16T22:17:51.066Z,5.60
2024-02-16T22:20:23.459Z,5.60
2024-02-16T22:23:02.012Z,5.50
2024-02-16T22:25:34.242Z,5.60
2024-02-16T22:28:12.979Z,5.60
2024-02-16T22:30:45.283Z,5.50
2024-02-16T22:33:24.052Z,5.40
2024-02-16T22:35:57.475Z,5.50
2024-02-16T22:38:35.966Z,5.50
2024-02-16T22:41:08.128Z,5.50
2024-02-16T22:43:48.040Z,5.40
2024-02-16T22:46:20.315Z,5.30
2024-02-16T22:48:59.153Z,5.40
2024-02-16T22:51:37.161Z,5.30
2024-02-16T22:54:23.249Z,5.50
2024-02-16T22:56:55.913Z,5.20
2024-02-16T22:59:35.052Z,5.30
2024-02-16T23:02:07.272Z,5.40
2024-02-16T23:04:46.322Z,5.40
2024-02-16T23:07:20.905Z,5.20
2024-02-16T23:10:00.959Z,5.30
2024-02-16T23:12:33.248Z,5.30
2024-02-16T23:15:14.999Z,5.30
2024-02-16T23:17:48.356Z,5.10
2024-02-16T23:20:27.180Z,5.30
2024-02-16T23:23:04.168Z,5.30
2024-02-16T23:25:49.093Z,5.30
2024-02-16T23:28:21.469Z,5.50
2024-02-16T23:31:00.095Z,5.30
2024-02-16T23:33:40.913Z,5.50
2024-02-16T23:36:20.086Z,5.30
2024-02-16T23:38:52.326Z,5.20
2024-02-16T23:41:32.023Z,5.30
2024-02-16T23:44:04.448Z,5.40
2024-02-16T23:46:43.018Z,5.30
2024-02-16T23:49:15.321Z,5.30
2024-02-16T23:51:54.150Z,5.10
2024-02-16T23:54:26.471Z,5.30
2024-02-16T23:57:04.919Z,5.20
2024-02-16T23:59:55.476Z,5.10
